Time;durP1;ratioP1;P1;durP2;ratioP2;P2;SDS_P1;SDS_P2;PMS_P1;PMS_P2;Temp;Humidity;BMP_temperature;BMP_pressure;BME280_temperature;BME280_humidity;BME280_pressure;Samples;Min_cycle;Max_cycle;Signal;HPM_P1;HPM_P2
2023/12/24 00:00:13;;;;;;;;;;;;;;;22.25;37.07;100558.75;5040674;28;20334;-50
2023/12/24 00:02:38;;;;;;;;;;;;;;;22.23;37.19;100558.97;5013661;28;19921;-48
2023/12/24 00:05:03;;;;;;;;;;;;;;;22.21;37.04;100559.13;5011916;28;19918;-49
2023/12/24 00:07:29;;;;;;;;;;;;;;;22.19;36.99;100555.81;5011692;28;19918;-47
2023/12/24 00:09:54;;;;;;;;;;;;;;;22.18;37.18;100550.59;5020607;28;19927;-51
2023/12/24 00:12:19;;;;;;;;;;;;;;;22.16;36.89;100547.25;5029432;28;19988;-50
2023/12/24 00:14:44;;;;;;;;;;;;;;;22.13;36.88;100542.22;5043872;28;19920;-48
2023/12/24 00:17:09;;;;;;;;;;;;;;;22.12;37.13;100535.09;5024864;28;19923;-48
2023/12/24 00:19:34;;;;;;;;;;;;;;;22.11;37.00;100533.44;5009728;28;19963;-50
2023/12/24 00:22:00;;;;;;;;;;;;;;;22.09;37.11;100513.81;5018511;28;19918;-47
2023/12/24 00:24:25;;;;;;;;;;;;;;;22.08;36.91;100504.03;5035116;28;19914;-49
2023/12/24 00:26:50;;;;;;;;;;;;;;;22.07;37.14;100505.09;5030382;28;19919;-47
2023/12/24 00:29:15;;;;;;;;;;;;;;;22.05;36.91;100515.28;5023737;28;19917;-47
2023/12/24 00:31:40;;;;;;;;;;;;;;;22.03;37.01;100520.06;5042057;28;19917;-50
2023/12/24 00:34:06;;;;;;;;;;;;;;;22.01;37.19;100530.25;5016834;28;19919;-50
2023/12/24 00:36:31;;;;;;;;;;;;;;;21.99;37.13;100518.78;5015281;28;20409;-50
2023/12/24 00:38:56;;;;;;;;;;;;;;;21.99;37.28;100516.06;5030757;28;19918;-50
2023/12/24 00:41:21;;;;;;;;;;;;;;;21.95;37.23;100511.03;5021940;28;19925;-47
2023/12/24 00:43:46;;;;;;;;;;;;;;;21.94;37.01;100522.91;5021556;28;19917;-49
2023/12/24 00:46:15;;;;;;;;;;;;;;;21.93;37.21;100521.25;5038087;28;19917;-48
2023/12/24 00:48:40;;;;;;;;;;;;;;;21.90;37.31;100505.41;5018873;28;19921;-47
2023/12/24 00:51:05;;;;;;;;;;;;;;;21.90;37.27;100501.84;5072176;28;20462;-47
2023/12/24 00:53:31;;;;;;;;;;;;;;;21.88;37.07;100498.53;5040966;28;19921;-46
2023/12/24 00:55:57;;;;;;;;;;;;;;;21.86;37.21;100490.59;5013687;28;19918;-51
2023/12/24 00:58:23;;;;;;;;;;;;;;;21.85;37.51;100483.50;5008152;28;19962;-49
2023/12/24 01:00:48;;;;;;;;;;;;;;;21.85;37.36;100477.25;5027305;28;19914;-49
2023/12/24 01:03:13;;;;;;;;;;;;;;;21.82;37.28;100467.66;5029659;28;19912;-47
2023/12/24 01:05:39;;;;;;;;;;;;;;;21.82;37.52;100466.81;5026225;28;19983;-50
2023/12/24 01:08:04;;;;;;;;;;;;;;;21.79;37.36;100476.19;5031889;28;20149;-49
2023/12/24 01:10:29;;;;;;;;;;;;;;;21.78;37.41;100465.53;5031991;28;19921;-49
2023/12/24 01:12:54;;;;;;;;;;;;;;;21.76;37.33;100473.03;5015242;28;19921;-48
2023/12/24 01:15:20;;;;;;;;;;;;;;;21.75;37.26;100477.63;5017180;28;19971;-48
2023/12/24 01:17:45;;;;;;;;;;;;;;;21.75;37.38;100477.63;5043499;28;19943;-46
2023/12/24 01:20:14;;;;;;;;;;;;;;;21.73;37.30;100471.56;5036399;28;19921;-46
2023/12/24 01:22:40;;;;;;;;;;;;;;;21.71;37.34;100466.34;5065956;28;19920;-50
2023/12/24 01:25:05;;;;;;;;;;;;;;;21.70;37.37;100466.53;5032115;28;19916;-48
2023/12/24 01:27:30;;;;;;;;;;;;;;;21.69;37.52;100462.16;5016788;28;19918;-46
2023/12/24 01:29:55;;;;;;;;;;;;;;;21.67;37.52;100475.06;5019051;28;19925;-49
2023/12/24 01:32:20;;;;;;;;;;;;;;;21.66;37.47;100466.13;5040698;28;20323;-45
2023/12/24 01:34:46;;;;;;;;;;;;;;;21.64;37.78;100468.16;5032343;28;20276;-45
2023/12/24 01:37:11;;;;;;;;;;;;;;;21.63;37.60;100463.78;5022195;28;19917;-46
2023/12/24 01:39:36;;;;;;;;;;;;;;;21.61;37.68;100463.16;5037019;28;20360;-48
2023/12/24 01:42:01;;;;;;;;;;;;;;;21.60;37.49;100458.78;5024955;28;20041;-46
2023/12/24 01:44:26;;;;;;;;;;;;;;;21.59;37.60;100461.69;5017042;28;19916;-45
2023/12/24 01:46:52;;;;;;;;;;;;;;;21.57;37.82;100458.31;5016781;28;19914;-46
2023/12/24 01:49:17;;;;;;;;;;;;;;;21.56;37.63;100468.31;5035659;28;19954;-47
2023/12/24 01:51:42;;;;;;;;;;;;;;;21.55;37.74;100463.94;5086317;28;19926;-46
2023/12/24 01:54:07;;;;;;;;;;;;;;;21.53;37.76;100463.28;5033968;28;19913;-47
2023/12/24 01:56:32;;;;;;;;;;;;;;;21.53;38.04;100463.28;5067517;28;20393;-46
2023/12/24 01:58:57;;;;;;;;;;;;;;;21.51;38.08;100453.72;5074629;28;19914;-48
2023/12/24 02:01:23;;;;;;;;;;;;;;;21.50;37.77;100461.00;5010840;28;19953;-46
2023/12/24 02:03:48;;;;;;;;;;;;;;;21.49;37.86;100458.47;5029337;28;19914;-45
2023/12/24 02:06:13;;;;;;;;;;;;;;;21.47;37.99;100453.28;5034687;28;19916;-48
2023/12/24 02:08:39;;;;;;;;;;;;;;;21.45;38.06;100447.19;5071318;28;19918;-48
2023/12/24 02:11:04;;;;;;;;;;;;;;;21.44;37.96;100448.25;5064420;28;19914;-48
2023/12/24 02:13:29;;;;;;;;;;;;;;;21.43;37.89;100443.88;5019012;28;20012;-45
2023/12/24 02:15:56;;;;;;;;;;;;;;;21.41;38.02;100435.97;5012581;28;19914;-48
2023/12/24 02:18:21;;;;;;;;;;;;;;;21.40;38.07;100434.28;5068444;28;19918;-46
2023/12/24 02:20:46;;;;;;;;;;;;;;;21.39;38.01;100432.59;5026922;28;19925;-46
2023/12/24 02:23:12;;;;;;;;;;;;;;;21.39;38.24;100424.50;5007306;28;19964;-47
2023/12/24 02:25:37;;;;;;;;;;;;;;;21.38;38.20;100413.88;5019937;28;20006;-51
2023/12/24 02:28:13;;;;;;;;;;;;;;;21.36;38.23;100405.94;5020533;28;19924;-46
2023/12/24 02:30:42;;;;;;;;;;;;;;;21.35;38.12;100403.44;5004986;28;19925;-48
2023/12/24 02:33:08;;;;;;;;;;;;;;;21.32;38.48;100409.25;5066339;28;19918;-48
2023/12/24 02:35:33;;;;;;;;;;;;;;;21.33;38.29;100409.06;5067318;28;19947;-45
2023/12/24 02:37:59;;;;;;;;;;;;;;;21.31;38.43;100413.78;5062436;28;19918;-50
2023/12/24 02:40:24;;;;;;;;;;;;;;;21.29;38.37;100401.53;5018809;28;19914;-49
2023/12/24 02:42:49;;;;;;;;;;;;;;;21.29;38.41;100406.94;5034381;28;19922;-50
2023/12/24 02:45:14;;;;;;;;;;;;;;;21.27;38.56;100404.41;5044769;28;19920;-50
2023/12/24 02:47:39;;;;;;;;;;;;;;;21.25;38.31;100406.47;5019245;28;20371;-48
2023/12/24 02:50:05;;;;;;;;;;;;;;;21.24;38.45;100396.69;5038602;28;19916;-50
2023/12/24 02:52:30;;;;;;;;;;;;;;;21.23;38.57;100395.00;5016808;28;19961;-50
2023/12/24 02:54:56;;;;;;;;;;;;;;;21.21;38.48;100395.22;5014311;28;19971;-50
2023/12/24 02:57:21;;;;;;;;;;;;;;;21.21;38.39;100399.78;5038060;28;20013;-49
2023/12/24 02:59:46;;;;;;;;;;;;;;;21.18;38.75;100378.53;5026513;28;20350;-47
2023/12/24 03:02:11;;;;;;;;;;;;;;;21.18;38.75;100384.78;5045572;28;19912;-48
2023/12/24 03:04:36;;;;;;;;;;;;;;;21.17;38.56;100391.22;5071144;28;19914;-51
2023/12/24 03:07:02;;;;;;;;;;;;;;;21.16;38.85;100383.31;5022547;28;19927;-47
2023/12/24 03:09:27;;;;;;;;;;;;;;;21.14;38.64;100372.69;5017094;28;20012;-50
2023/12/24 03:11:52;;;;;;;;;;;;;;;21.12;38.71;100363.97;5032607;28;20410;-47
2023/12/24 03:14:17;;;;;;;;;;;;;;;21.11;38.94;100374.94;5028929;28;19936;-50
2023/12/24 03:16:42;;;;;;;;;;;;;;;21.09;38.90;100383.25;5020569;28;19918;-49
2023/12/24 03:19:07;;;;;;;;;;;;;;;21.09;39.10;100374.31;5041738;28;19917;-50
2023/12/24 03:21:33;;;;;;;;;;;;;;;21.06;39.08;100367.44;5035233;28;20033;-48
2023/12/24 03:23:58;;;;;;;;;;;;;;;21.05;39.08;100368.47;5019320;28;20448;-51
2023/12/24 03:26:23;;;;;;;;;;;;;;;21.05;38.91;100364.94;5020312;28;19916;-48
2023/12/24 03:28:48;;;;;;;;;;;;;;;21.03;39.12;100359.72;5029435;28;19931;-51
2023/12/24 03:31:14;;;;;;;;;;;;;;;21.01;39.21;100356.38;5016702;28;19917;-49
2023/12/24 03:33:39;;;;;;;;;;;;;;;21.01;38.93;100350.97;5014064;28;20421;-48
2023/12/24 03:36:06;;;;;;;;;;;;;;;21.01;38.99;100350.13;5033006;28;19920;-50
2023/12/24 03:38:32;;;;;;;;;;;;;;;20.99;39.24;100341.41;5085931;28;19940;-47
2023/12/24 03:40:57;;;;;;;;;;;;;;;20.98;39.26;100345.94;5008972;28;19913;-49
2023/12/24 03:43:22;;;;;;;;;;;;;;;20.97;39.07;100338.88;5033652;28;19916;-47
2023/12/24 03:45:47;;;;;;;;;;;;;;;20.96;39.29;100329.94;5038427;28;20378;-50
2023/12/24 03:48:12;;;;;;;;;;;;;;;20.94;39.21;100333.84;5010592;28;19916;-50
2023/12/24 03:50:38;;;;;;;;;;;;;;;20.93;39.40;100330.31;5036245;28;19933;-47
2023/12/24 03:53:03;;;;;;;;;;;;;;;20.53;39.16;100268.91;5020254;28;19944;-46
2023/12/24 03:55:28;;;;;;;;;;;;;;;20.92;39.47;100334.06;5011253;28;19914;-49
2023/12/24 03:57:53;;;;;;;;;;;;;;;20.91;39.16;100340.50;5016416;28;19944;-49
2023/12/24 04:00:18;;;;;;;;;;;;;;;20.89;39.42;100329.03;5085054;28;20356;-50
2023/12/24 04:02:44;;;;;;;;;;;;;;;20.88;39.58;100324.69;5010516;28;19914;-50
2023/12/24 04:05:09;;;;;;;;;;;;;;;20.88;39.61;100327.38;5025423;28;19975;-48
2023/12/24 04:07:34;;;;;;;;;;;;;;;20.87;39.38;100324.88;5039718;28;19913;-50
2023/12/24 04:09:59;;;;;;;;;;;;;;;20.85;39.63;100314.25;5017978;28;19981;-51
2023/12/24 04:12:24;;;;;;;;;;;;;;;20.85;39.70;100318.81;5020634;28;19924;-48
2023/12/24 04:14:49;;;;;;;;;;;;;;;20.83;39.72;100308.22;5035288;28;19917;-50
2023/12/24 04:17:15;;;;;;;;;;;;;;;20.82;39.70;100313.84;5024087;28;19947;-50
2023/12/24 04:19:40;;;;;;;;;;;;;;;20.80;39.52;100311.31;5022189;28;19990;-47
2023/12/24 04:22:05;;;;;;;;;;;;;;;20.79;39.69;100309.63;5028061;28;19977;-48
2023/12/24 04:24:32;;;;;;;;;;;;;;;20.77;39.74;100295.47;5055294;28;20198;-50
2023/12/24 04:26:57;;;;;;;;;;;;;;;20.77;39.85;100302.75;5038808;28;20011;-50
2023/12/24 04:29:22;;;;;;;;;;;;;;;20.77;39.76;100289.25;5053272;28;19929;-49
2023/12/24 04:31:47;;;;;;;;;;;;;;;20.76;39.80;100292.97;5032887;28;20005;-48
2023/12/24 04:34:12;;;;;;;;;;;;;;;20.75;39.71;100288.63;5006134;28;19936;-47
2023/12/24 04:36:37;;;;;;;;;;;;;;;20.74;39.70;100295.06;5023436;28;19918;-47
2023/12/24 04:39:03;;;;;;;;;;;;;;;20.74;40.05;100303.16;5055716;28;19916;-47
2023/12/24 04:41:28;;;;;;;;;;;;;;;20.71;39.96;100294.41;5012043;28;19996;-48
2023/12/24 04:43:54;;;;;;;;;;;;;;;20.70;40.02;100283.81;5061746;28;20006;-48
2023/12/24 04:46:19;;;;;;;;;;;;;;;20.69;40.13;100285.69;5033014;28;19914;-48
2023/12/24 04:48:44;;;;;;;;;;;;;;;20.69;40.02;100279.44;5005732;28;19924;-50
2023/12/24 04:51:10;;;;;;;;;;;;;;;20.68;40.14;100285.84;5024429;28;19938;-48
2023/12/24 04:53:35;;;;;;;;;;;;;;;20.66;40.18;100272.53;5026447;28;19918;-45
2023/12/24 04:56:00;;;;;;;;;;;;;;;20.65;40.16;100265.47;5006024;28;19918;-47
2023/12/24 04:58:25;;;;;;;;;;;;;;;20.64;40.25;100265.66;5025671;28;19913;-52
2023/12/24 05:00:50;;;;;;;;;;;;;;;20.64;40.04;100266.50;5037038;28;19914;-47
2023/12/24 05:03:15;;;;;;;;;;;;;;;20.62;40.29;100262.34;5025964;28;19921;-48
2023/12/24 05:05:41;;;;;;;;;;;;;;;20.63;40.23;100266.69;5012916;28;19913;-46
2023/12/24 05:08:06;;;;;;;;;;;;;;;20.61;40.21;100258.81;5023699;28;19921;-46
2023/12/24 05:10:31;;;;;;;;;;;;;;;20.60;40.35;100256.28;5014718;28;20437;-48
2023/12/24 05:12:56;;;;;;;;;;;;;;;20.59;40.14;100250.03;5033502;28;19920;-48
2023/12/24 05:15:22;;;;;;;;;;;;;;;20.58;40.39;100252.94;5033601;28;19921;-47
2023/12/24 05:17:47;;;;;;;;;;;;;;;20.56;40.25;100247.75;5015647;28;19920;-50
2023/12/24 05:20:12;;;;;;;;;;;;;;;20.56;40.52;100249.59;5008072;28;19920;-49
2023/12/24 05:22:37;;;;;;;;;;;;;;;20.55;40.49;100247.94;5025177;28;19956;-47
2023/12/24 05:25:03;;;;;;;;;;;;;;;20.53;40.29;100244.59;5029139;28;19922;-50
2023/12/24 05:27:28;;;;;;;;;;;;;;;20.53;40.41;100250.00;5017488;28;19952;-47
2023/12/24 05:29:53;;;;;;;;;;;;;;;20.52;40.36;100251.88;5022451;28;19931;-47
2023/12/24 05:32:18;;;;;;;;;;;;;;;20.51;40.44;100247.47;5040078;28;19917;-51
2023/12/24 05:34:45;;;;;;;;;;;;;;;20.50;40.68;100259.31;5011811;28;19917;-45
2023/12/24 05:37:10;;;;;;;;;;;;;;;20.50;40.52;100250.38;5019435;28;20271;-45
2023/12/24 05:39:35;;;;;;;;;;;;;;;20.47;40.78;100248.88;5059980;28;19953;-47
2023/12/24 05:42:01;;;;;;;;;;;;;;;20.46;40.57;100258.84;5069762;28;19917;-45
2023/12/24 05:44:26;;;;;;;;;;;;;;;20.45;40.65;100240.16;5024556;28;19921;-47
2023/12/24 05:46:51;;;;;;;;;;;;;;;20.44;40.70;100239.31;5031204;28;19913;-50
2023/12/24 05:49:17;;;;;;;;;;;;;;;20.43;40.86;100245.75;5021950;28;19961;-49
2023/12/24 05:51:42;;;;;;;;;;;;;;;20.42;40.72;100244.06;5006366;28;20012;-50
2023/12/24 05:54:07;;;;;;;;;;;;;;;20.41;40.93;100234.28;5044196;28;20019;-49
2023/12/24 05:56:32;;;;;;;;;;;;;;;20.40;40.94;100246.13;5070597;28;19926;-49
2023/12/24 05:58:57;;;;;;;;;;;;;;;20.40;41.37;100251.53;5016377;28;19920;-50
2023/12/24 06:01:22;;;;;;;;;;;;;;;20.39;40.88;100240.91;5018487;28;19929;-46
2023/12/24 06:03:48;;;;;;;;;;;;;;;20.38;41.27;100234.66;5025342;28;20042;-49
2023/12/24 06:06:13;;;;;;;;;;;;;;;20.38;41.08;100236.53;5015971;28;20254;-50
2023/12/24 06:08:38;;;;;;;;;;;;;;;20.37;41.18;100245.69;5023652;28;19912;-49
2023/12/24 06:11:03;;;;;;;;;;;;;;;20.37;41.42;100237.56;5061207;28;19928;-51
2023/12/24 06:13:28;;;;;;;;;;;;;;;20.36;41.58;100225.13;5011344;28;19929;-48
2023/12/24 06:15:53;;;;;;;;;;;;;;;20.36;41.28;100223.25;5069947;28;19922;-48
2023/12/24 06:18:19;;;;;;;;;;;;;;;20.36;41.64;100235.91;5030334;28;19920;-49
2023/12/24 06:20:44;;;;;;;;;;;;;;;20.36;41.50;100235.91;5010116;28;19925;-47
2023/12/24 06:23:09;;;;;;;;;;;;;;;20.34;41.76;100238.78;5054241;28;19939;-51
2023/12/24 06:25:35;;;;;;;;;;;;;;;20.34;41.98;100240.66;5025821;28;19931;-50
2023/12/24 06:28:00;;;;;;;;;;;;;;;20.34;41.95;100235.25;5012430;28;19917;-47
2023/12/24 06:30:25;;;;;;;;;;;;;;;20.34;42.31;100243.34;5004218;28;19917;-47
2023/12/24 06:32:50;;;;;;;;;;;;;;;20.33;41.92;100234.44;5006363;28;19940;-51
2023/12/24 06:35:16;;;;;;;;;;;;;;;20.33;42.36;100245.22;5028146;28;19956;-50
2023/12/24 06:37:42;;;;;;;;;;;;;;;20.33;42.12;100241.69;5016379;28;19924;-48
2023/12/24 06:40:07;;;;;;;;;;;;;;;20.33;42.30;100239.81;5043608;28;19908;-46
2023/12/24 06:42:32;;;;;;;;;;;;;;;20.31;42.39;100236.50;5027902;28;19918;-48
2023/12/24 06:44:57;;;;;;;;;;;;;;;20.31;42.64;100235.66;5007113;28;19914;-44
2023/12/24 06:47:22;;;;;;;;;;;;;;;20.30;42.37;100237.50;5017123;28;19925;-47
2023/12/24 06:49:48;;;;;;;;;;;;;;;20.31;42.76;100241.06;5020564;28;19988;-50
2023/12/24 06:52:13;;;;;;;;;;;;;;;20.31;42.79;100225.69;5053501;28;20436;-47
2023/12/24 06:54:38;;;;;;;;;;;;;;;20.31;42.56;100216.78;5079625;28;19925;-49
2023/12/24 06:57:04;;;;;;;;;;;;;;;20.30;42.73;100217.78;5028176;28;19920;-50
2023/12/24 06:59:29;;;;;;;;;;;;;;;20.30;42.73;100220.47;5006285;28;20403;-46
2023/12/24 07:01:55;;;;;;;;;;;;;;;20.30;42.77;100233.97;5008580;28;19918;-47
2023/12/24 07:04:20;;;;;;;;;;;;;;;20.31;42.77;100232.97;5007385;28;19918;-50
2023/12/24 07:06:45;;;;;;;;;;;;;;;20.30;42.89;100232.09;5000457;28;19914;-47
2023/12/24 07:09:11;;;;;;;;;;;;;;;20.32;43.21;100234.63;5002862;28;19917;-48
2023/12/24 07:11:36;;;;;;;;;;;;;;;20.30;42.94;100226.72;5024274;28;19912;-48
2023/12/24 07:14:01;;;;;;;;;;;;;;;20.32;43.25;100215.72;5012569;28;19917;-51
2023/12/24 07:16:26;;;;;;;;;;;;;;;20.32;42.98;100219.25;5004089;28;19935;-49
2023/12/24 07:18:51;;;;;;;;;;;;;;;20.33;43.00;100207.44;5017267;28;19929;-50
2023/12/24 07:21:17;;;;;;;;;;;;;;;20.34;42.92;100209.09;5015929;28;19922;-48
2023/12/24 07:23:42;;;;;;;;;;;;;;;20.34;43.03;100203.69;5005918;28;19933;-49
2023/12/24 07:26:07;;;;;;;;;;;;;;;20.34;43.30;100203.69;5010551;28;19918;-47
2023/12/24 07:28:32;;;;;;;;;;;;;;;20.36;43.34;100207.03;5016875;28;19953;-48
2023/12/24 07:30:57;;;;;;;;;;;;;;;20.37;43.37;100215.97;5003596;28;19964;-47
2023/12/24 07:33:23;;;;;;;;;;;;;;;20.38;43.28;100212.25;5006452;28;19922;-45
2023/12/24 07:35:48;;;;;;;;;;;;;;;20.39;43.05;100220.16;5013119;28;19974;-49
2023/12/24 07:38:13;;;;;;;;;;;;;;;20.39;43.22;100227.41;5009792;28;19918;-48
2023/12/24 07:40:38;;;;;;;;;;;;;;;20.40;43.14;100221.00;5013608;28;19918;-49
2023/12/24 07:43:04;;;;;;;;;;;;;;;20.41;43.25;100211.88;5000945;28;19920;-48
2023/12/24 07:45:29;;;;;;;;;;;;;;;20.42;43.15;100213.53;5003916;28;19956;-50
2023/12/24 07:47:54;;;;;;;;;;;;;;;20.43;42.86;100217.88;5010717;28;19995;-48
2023/12/24 07:50:19;;;;;;;;;;;;;;;20.44;43.26;100214.19;5020218;28;19928;-46
2023/12/24 07:52:44;;;;;;;;;;;;;;;20.43;42.94;100210.66;5012342;28;19928;-46
2023/12/24 07:55:10;;;;;;;;;;;;;;;20.44;43.27;100208.78;5008242;28;19938;-47
2023/12/24 07:57:35;;;;;;;;;;;;;;;20.44;43.26;100209.59;5013739;28;19933;-47
2023/12/24 08:00:00;;;;;;;;;;;;;;;20.44;43.01;100212.31;5004045;28;19918;-49
2023/12/24 08:02:26;;;;;;;;;;;;;;;20.46;43.24;100212.94;5027992;28;19925;-46
2023/12/24 08:04:54;;;;;;;;;;;;;;;20.47;43.13;100200.25;5032256;28;19959;-50
2023/12/24 08:07:19;;;;;;;;;;;;;;;20.49;42.92;100210.91;5027471;28;20478;-48
2023/12/24 08:09:44;;;;;;;;;;;;;;;20.50;42.80;100201.78;5017634;28;19987;-50
2023/12/24 08:12:10;;;;;;;;;;;;;;;20.51;43.14;100198.03;5023111;28;19947;-44
2023/12/24 08:14:36;;;;;;;;;;;;;;;20.52;43.10;100200.56;5032663;28;19916;-45
2023/12/24 08:17:01;;;;;;;;;;;;;;;20.53;42.82;100190.59;5032038;28;19914;-47
2023/12/24 08:19:26;;;;;;;;;;;;;;;20.52;43.07;100192.47;5039071;28;19913;-48
2023/12/24 08:21:51;;;;;;;;;;;;;;;20.54;42.96;100195.78;5027041;28;20401;-45
2023/12/24 08:24:17;;;;;;;;;;;;;;;20.54;42.92;100186.84;5011310;28;19945;-45
2023/12/24 08:26:43;;;;;;;;;;;;;;;20.55;42.84;100185.81;5015668;28;19935;-47
2023/12/24 08:29:08;;;;;;;;;;;;;;;20.55;42.70;100188.53;5027864;28;19917;-46
2023/12/24 08:31:34;;;;;;;;;;;;;;;20.57;42.95;100183.78;5015592;28;19920;-47
2023/12/24 08:33:59;;;;;;;;;;;;;;;20.58;42.62;100190.84;5014490;28;19945;-46
2023/12/24 08:36:24;;;;;;;;;;;;;;;20.59;42.88;100200.59;5030585;28;19922;-48
2023/12/24 08:38:49;;;;;;;;;;;;;;;20.57;42.96;100208.91;5019679;28;19913;-45
2023/12/24 08:41:14;;;;;;;;;;;;;;;20.59;42.91;100204.13;5016809;28;19920;-46
2023/12/24 08:43:40;;;;;;;;;;;;;;;20.60;42.84;100202.25;5033696;28;19916;-48
2023/12/24 08:46:05;;;;;;;;;;;;;;;20.61;42.85;100206.66;5011420;28;19967;-47
2023/12/24 08:48:30;;;;;;;;;;;;;;;20.62;42.95;100214.53;5010809;28;19921;-46
2023/12/24 08:50:56;;;;;;;;;;;;;;;20.63;42.83;100208.09;5036526;28;19925;-49
2023/12/24 08:53:21;;;;;;;;;;;;;;;20.64;43.13;100200.84;5080223;28;19918;-46
2023/12/24 08:55:46;;;;;;;;;;;;;;;20.64;43.09;100196.25;5009015;28;19924;-45
2023/12/24 08:58:11;;;;;;;;;;;;;;;20.65;42.97;100184.44;5026225;28;19924;-45
2023/12/24 09:00:36;;;;;;;;;;;;;;;20.68;42.74;100191.31;5025171;28;19924;-45
2023/12/24 09:03:02;;;;;;;;;;;;;;;20.68;42.98;100197.53;5016857;28;19914;-46
2023/12/24 09:05:27;;;;;;;;;;;;;;;20.68;42.99;100208.34;5002074;28;19918;-44
2023/12/24 09:07:53;;;;;;;;;;;;;;;20.69;42.93;100199.22;5020953;28;19914;-45
2023/12/24 09:10:18;;;;;;;;;;;;;;;20.68;42.63;100194.84;5005350;28;20270;-44
2023/12/24 09:12:43;;;;;;;;;;;;;;;20.70;42.86;100197.38;5010751;28;19917;-46
2023/12/24 09:15:09;;;;;;;;;;;;;;;20.70;42.80;100187.38;5034565;28;19916;-44
2023/12/24 09:17:34;;;;;;;;;;;;;;;20.71;42.58;100194.44;5048744;28;20283;-45
2023/12/24 09:19:59;;;;;;;;;;;;;;;20.72;42.75;100185.31;5017631;28;20396;-45
2023/12/24 09:22:24;;;;;;;;;;;;;;;20.74;42.51;100185.13;5020327;28;19913;-46
2023/12/24 09:24:49;;;;;;;;;;;;;;;20.74;42.83;100179.72;5006627;28;19920;-45
2023/12/24 09:27:15;;;;;;;;;;;;;;;20.74;42.55;100171.63;5010587;28;19968;-45
2023/12/24 09:29:40;;;;;;;;;;;;;;;20.73;42.79;100191.56;5032712;28;19929;-47
2023/12/24 09:32:05;;;;;;;;;;;;;;;20.74;42.61;100185.13;5020572;28;19917;-45
2023/12/24 09:34:30;;;;;;;;;;;;;;;20.75;42.51;100183.25;5000913;28;20005;-46
2023/12/24 09:36:56;;;;;;;;;;;;;;;20.75;42.67;100181.38;5012059;28;19918;-49
2023/12/24 09:39:21;;;;;;;;;;;;;;;20.76;42.53;100180.34;5027156;28;19913;-50
2023/12/24 09:41:46;;;;;;;;;;;;;;;20.77;42.52;100162.25;5030027;28;19952;-46
2023/12/24 09:44:11;;;;;;;;;;;;;;;20.78;42.57;100180.16;5028322;28;19930;-46
2023/12/24 09:46:36;;;;;;;;;;;;;;;20.78;42.74;100178.28;5028455;28;19956;-50
2023/12/24 09:49:02;;;;;;;;;;;;;;;20.78;42.69;100170.19;5009238;28;19933;-47
2023/12/24 09:51:27;;;;;;;;;;;;;;;20.79;42.55;100160.22;5008694;28;19921;-45
2023/12/24 09:53:53;;;;;;;;;;;;;;;20.80;42.57;100159.19;5025603;28;19920;-49
2023/12/24 09:56:18;;;;;;;;;;;;;;;20.81;42.85;100152.72;5013938;28;19920;-50
2023/12/24 09:58:45;;;;;;;;;;;;;;;20.81;42.86;100158.13;5014990;28;20368;-47
2023/12/24 10:01:10;;;;;;;;;;;;;;;20.81;42.86;100183.28;5009568;28;19981;-47
2023/12/24 10:03:35;;;;;;;;;;;;;;;20.82;42.57;100176.88;5018300;28;19918;-46
2023/12/24 10:06:04;;;;;;;;;;;;;;;20.84;42.54;100179.34;5009747;28;19921;-50
2023/12/24 10:08:30;;;;;;;;;;;;;;;20.85;42.62;100167.50;5070788;28;19924;-49
2023/12/24 10:10:55;;;;;;;;;;;;;;;20.85;42.93;100189.13;5018873;28;19922;-48
2023/12/24 10:13:21;;;;;;;;;;;;;;;20.85;42.64;100195.34;5008473;28;19922;-49
2023/12/24 10:15:46;;;;;;;;;;;;;;;20.87;42.65;100198.72;5076099;28;19912;-48
2023/12/24 10:18:16;;;;;;;;;;;;;;;20.87;42.76;100209.53;5067143;28;20565;-49
2023/12/24 10:20:41;;;;;;;;;;;;;;;20.88;42.56;100216.59;5006356;28;19914;-49
2023/12/24 10:23:07;;;;;;;;;;;;;;;20.88;42.82;100205.78;5029567;28;19920;-48
2023/12/24 10:25:32;;;;;;;;;;;;;;;20.89;42.60;100204.75;5023469;28;20401;-49
2023/12/24 10:28:03;;;;;;;;;;;;;;;20.90;42.69;100202.91;5011099;28;19918;-49
2023/12/24 10:30:29;;;;;;;;;;;;;;;20.91;42.69;100218.06;5025848;28;19971;-50
2023/12/24 10:32:54;;;;;;;;;;;;;;;20.91;42.89;100210.78;5024299;28;19922;-50
2023/12/24 10:35:23;;;;;;;;;;;;;;;20.93;42.74;100210.59;5068678;28;19939;-48
2023/12/24 10:37:48;;;;;;;;;;;;;;;20.93;42.66;100208.72;5016230;28;20011;-47
2023/12/24 10:40:14;;;;;;;;;;;;;;;20.94;42.61;100207.69;5027223;28;20363;-49
2023/12/24 10:42:39;;;;;;;;;;;;;;;20.95;42.73;100203.13;5018270;28;19922;-46
2023/12/24 10:45:08;;;;;;;;;;;;;;;20.96;42.97;100188.56;5022099;28;19968;-47
2023/12/24 10:47:34;;;;;;;;;;;;;;;20.97;42.83;100190.25;5025604;28;19987;-49
2023/12/24 10:49:59;;;;;;;;;;;;;;;20.99;42.86;100188.19;5029583;28;19918;-49
2023/12/24 10:52:24;;;;;;;;;;;;;;;21.01;42.92;100183.41;5008692;28;19938;-47
2023/12/24 10:54:50;;;;;;;;;;;;;;;21.03;42.90;100177.81;5074896;28;19969;-49
2023/12/24 10:57:25;;;;;;;;;;;;;;;21.04;42.87;100166.78;5014615;28;19924;-45
2023/12/24 10:59:53;;;;;;;;;;;;;;;21.05;42.67;100162.22;5056796;28;20021;-48
2023/12/24 11:02:19;;;;;;;;;;;;;;;21.08;42.86;100165.38;5029153;28;19921;-47
2023/12/24 11:04:45;;;;;;;;;;;;;;;21.10;42.78;100162.44;5034793;28;19976;-49
2023/12/24 11:07:30;;;;;;;;;;;;;;;21.13;42.88;100162.06;5032511;28;19920;-50
2023/12/24 11:09:55;;;;;;;;;;;;;;;21.16;42.87;100145.44;5018604;28;19917;-48
2023/12/24 11:12:30;;;;;;;;;;;;;;;21.20;43.10;100125.06;5026976;28;19918;-45
2023/12/24 11:14:55;;;;;;;;;;;;;;;21.22;42.85;100121.13;5007200;28;19923;-50
2023/12/24 11:17:40;;;;;;;;;;;;;;;21.27;42.96;100133.19;5074942;28;19953;-50
2023/12/24 11:20:18;;;;;;;;;;;;;;;21.30;42.84;100119.28;5045580;28;19940;-49
2023/12/24 11:23:01;;;;;;;;;;;;;;;21.33;43.17;100127.03;5008198;28;20009;-50
2023/12/24 11:25:27;;;;;;;;;;;;;;;21.36;43.14;100118.47;5027354;28;19912;-50
2023/12/24 11:27:55;;;;;;;;;;;;;;;21.39;43.14;100129.72;5068290;28;20024;-46
2023/12/24 11:30:20;;;;;;;;;;;;;;;21.42;43.01;100110.41;5018165;28;20326;-45
2023/12/24 11:32:45;;;;;;;;;;;;;;;21.45;43.15;100106.44;5016697;28;20017;-47
2023/12/24 11:35:10;;;;;;;;;;;;;;;21.48;42.90;100105.19;5017072;28;20302;-50
2023/12/24 11:37:36;;;;;;;;;;;;;;;21.50;42.82;100101.25;5062741;28;19918;-46
2023/12/24 11:40:02;;;;;;;;;;;;;;;21.53;42.65;100079.19;5017180;28;20511;-49
2023/12/24 11:42:39;;;;;;;;;;;;;;;21.55;42.70;100081.72;5017942;28;19920;-49
2023/12/24 11:45:05;;;;;;;;;;;;;;;21.58;42.67;100089.38;5005238;28;20494;-51
2023/12/24 11:47:30;;;;;;;;;;;;;;;21.60;42.68;100100.84;5019078;28;20363;-50
2023/12/24 11:49:55;;;;;;;;;;;;;;;21.63;42.79;100090.47;5068836;28;19984;-47
2023/12/24 11:52:21;;;;;;;;;;;;;;;21.66;42.39;100092.75;5020296;28;20431;-46
2023/12/24 11:54:46;;;;;;;;;;;;;;;21.68;42.29;100092.53;5015270;28;19914;-47
2023/12/24 11:57:23;;;;;;;;;;;;;;;21.70;42.47;100101.28;5070533;28;19925;-49
2023/12/24 11:59:48;;;;;;;;;;;;;;;21.74;42.49;100099.00;5065844;28;19917;-48
2023/12/24 12:02:14;;;;;;;;;;;;;;;21.77;42.16;100099.41;5012572;28;19922;-47
2023/12/24 12:04:39;;;;;;;;;;;;;;;21.81;42.14;100089.84;5020626;28;19925;-47
2023/12/24 12:07:04;;;;;;;;;;;;;;;21.82;42.05;100083.38;5085330;28;19952;-46
2023/12/24 12:09:29;;;;;;;;;;;;;;;21.85;41.99;100079.44;5013370;28;19920;-45
2023/12/24 12:11:54;;;;;;;;;;;;;;;21.86;42.33;100071.09;5027606;28;19912;-46
2023/12/24 12:14:19;;;;;;;;;;;;;;;21.89;41.93;100064.47;5014950;28;19987;-47
2023/12/24 12:16:45;;;;;;;;;;;;;;;21.90;42.00;100066.13;5011905;28;19912;-46
2023/12/24 12:19:10;;;;;;;;;;;;;;;21.93;41.80;100074.66;5076199;28;19945;-47
2023/12/24 12:21:35;;;;;;;;;;;;;;;21.95;41.88;100060.91;5026786;28;19918;-47
2023/12/24 12:24:00;;;;;;;;;;;;;;;21.98;41.85;100062.38;5014461;28;19924;-48
2023/12/24 12:26:26;;;;;;;;;;;;;;;21.99;41.95;100064.84;5020186;28;19914;-48